Ormesby Saint Margaret, United Kingdom
Current Conditions -  °F | °C
As of 11:20 AM on Thursday 23 Oct 2014 (Local Time) from EGSD Reporting Station
Broken Clouds Broken Clouds  
Wind Chill: 55°   Ceiling: 4000
Heat Index: 55°   Visibility: 6mi
Dew Point: 52°   Wind: 14mph
Humidity: 88%   Direction: 220°SW
Pressure: 30.09"   Gusts: NA
Location:  52.67°N, 1.7°E
Report Text: EGSD 231020Z 22012KT 9999 BKN040 13/11 Q1019
Loading
Personal Weather Stations






























Interactive Weather Map
Tropical Storm Tracking
New forecast layout! Learn more

10-Day Weather Forecast

Advertisements
Track Severe Weather on mobile